Time;durP1;ratioP1;P1;durP2;ratioP2;P2;SDS_P1;SDS_P2;PMS_P1;PMS_P2;Temp;Humidity;BMP_temperature;BMP_pressure;BME280_temperature;BME280_humidity;BME280_pressure;Samples;Min_cycle;Max_cycle;Signal;HPM_P1;HPM_P2
2022/07/22 00:02:08;;;;;;;6.95;4.15;;;20.80;59.30;;;;;;4981498;28;20055;-72
2022/07/22 00:04:33;;;;;;;6.75;4.40;;;20.80;59.40;;;;;;4966053;28;20116;-73
2022/07/22 00:06:59;;;;;;;5.00;4.05;;;20.80;59.50;;;;;;4969831;28;20026;-73
2022/07/22 00:09:25;;;;;;;6.25;4.10;;;20.80;59.70;;;;;;4999670;28;20034;-74
2022/07/22 00:11:50;;;;;;;5.47;3.88;;;20.80;59.70;;;;;;4965146;28;20776;-74
2022/07/22 00:14:16;;;;;;;6.53;4.32;;;20.70;59.80;;;;;;4964011;28;20042;-74
2022/07/22 00:16:41;;;;;;;5.35;4.18;;;20.70;59.70;;;;;;4964343;28;20108;-73
2022/07/22 00:19:07;;;;;;;5.13;4.35;;;20.70;59.90;;;;;;4959780;28;20038;-72
2022/07/22 00:21:33;;;;;;;5.53;3.95;;;20.60;60.00;;;;;;4957174;28;20027;-72
2022/07/22 00:23:58;;;;;;;6.15;4.45;;;20.60;60.20;;;;;;4983495;28;20046;-74
2022/07/22 00:26:24;;;;;;;5.60;4.68;;;20.60;60.20;;;;;;4962440;28;20092;-72
2022/07/22 00:28:49;;;;;;;5.82;4.15;;;20.60;60.30;;;;;;4971678;28;20835;-73
2022/07/22 00:31:15;;;;;;;4.07;3.67;;;20.50;60.30;;;;;;4965022;28;22614;-73
2022/07/22 00:33:41;;;;;;;4.90;4.40;;;20.50;60.40;;;;;;4992413;28;20105;-72
2022/07/22 00:36:07;;;;;;;7.45;4.10;;;20.50;60.40;;;;;;4955736;28;20053;-72
2022/07/22 00:38:32;;;;;;;5.07;4.50;;;20.40;60.60;;;;;;4979920;28;20064;-71
2022/07/22 00:40:58;;;;;;;5.32;4.22;;;20.40;60.60;;;;;;4951224;28;20046;-73
2022/07/22 00:43:23;;;;;;;4.82;4.25;;;20.40;60.70;;;;;;4957518;28;20541;-72
2022/07/22 00:45:49;;;;;;;9.43;4.40;;;20.30;60.80;;;;;;4974754;28;20035;-72
2022/07/22 00:48:14;;;;;;;5.07;4.18;;;20.30;61.00;;;;;;4962134;28;20041;-74
2022/07/22 00:50:40;;;;;;;6.13;4.15;;;20.30;61.00;;;;;;4978885;28;20031;-72
2022/07/22 00:53:06;;;;;;;5.07;4.05;;;20.20;61.10;;;;;;4964199;28;20576;-72
2022/07/22 00:55:33;;;;;;;6.43;4.10;;;20.20;61.20;;;;;;4950647;28;20058;-72
2022/07/22 00:57:58;;;;;;;8.27;4.00;;;20.20;61.20;;;;;;4974095;28;20043;-72
2022/07/22 01:00:24;;;;;;;4.38;3.72;;;20.10;61.40;;;;;;4961432;28;20671;-72
2022/07/22 01:02:49;;;;;;;5.13;4.40;;;20.10;61.40;;;;;;4947386;28;20038;-72
2022/07/22 01:05:15;;;;;;;5.15;3.65;;;20.10;61.40;;;;;;4945423;28;20042;-72
2022/07/22 01:07:41;;;;;;;5.35;4.20;;;20.00;61.60;;;;;;4966117;28;20041;-72
2022/07/22 01:10:07;;;;;;;5.47;4.30;;;20.00;61.70;;;;;;4976272;28;20038;-72
2022/07/22 01:12:32;;;;;;;4.18;3.78;;;19.90;61.70;;;;;;4959625;28;20031;-72
2022/07/22 01:14:58;;;;;;;4.95;3.88;;;19.90;61.90;;;;;;4952492;28;20176;-72
2022/07/22 01:17:23;;;;;;;4.47;3.85;;;19.90;62.00;;;;;;4944250;28;20035;-72
2022/07/22 01:19:49;;;;;;;5.57;4.03;;;19.80;62.10;;;;;;4939910;28;20035;-73
2022/07/22 01:22:15;;;;;;;4.68;3.60;;;19.80;62.30;;;;;;4982495;28;20043;-72
2022/07/22 01:24:40;;;;;;;5.22;4.13;;;19.70;62.40;;;;;;4993136;28;20023;-72
2022/07/22 01:27:06;;;;;;;7.28;4.30;;;19.70;62.50;;;;;;4982830;28;20046;-74
2022/07/22 01:29:32;;;;;;;5.00;3.45;;;19.70;62.80;;;;;;4960405;28;20039;-73
2022/07/22 01:31:57;;;;;;;4.65;3.60;;;19.60;62.80;;;;;;4997528;28;20023;-73
2022/07/22 01:34:23;;;;;;;6.47;4.03;;;19.60;63.00;;;;;;4962981;28;20034;-72
2022/07/22 01:36:49;;;;;;;5.72;4.05;;;19.60;63.10;;;;;;4956753;28;20053;-72
2022/07/22 01:39:15;;;;;;;4.10;3.70;;;19.50;63.20;;;;;;4962210;28;20034;-72
2022/07/22 01:41:40;;;;;;;5.45;3.83;;;19.50;63.40;;;;;;4944690;28;20038;-73
2022/07/22 01:44:06;;;;;;;4.53;4.13;;;19.50;63.50;;;;;;4962933;28;20042;-73
2022/07/22 01:46:32;;;;;;;5.18;3.60;;;19.50;63.50;;;;;;4969059;28;20757;-73
2022/07/22 01:48:57;;;;;;;6.30;3.97;;;19.40;63.40;;;;;;4982660;28;20185;-72
2022/07/22 01:51:23;;;;;;;5.00;3.80;;;19.40;63.60;;;;;;4969820;28;20088;-73
2022/07/22 01:53:48;;;;;;;5.75;3.67;;;19.40;63.80;;;;;;4970009;28;20039;-73
2022/07/22 01:56:14;;;;;;;4.63;3.75;;;19.30;63.80;;;;;;4971946;28;20056;-75
2022/07/22 01:58:39;;;;;;;4.45;4.05;;;19.30;63.90;;;;;;4957925;28;20038;-72
2022/07/22 02:01:05;;;;;;;3.60;3.30;;;19.30;63.90;;;;;;4961941;28;20037;-73
2022/07/22 02:03:30;;;;;;;4.00;3.60;;;19.20;63.90;;;;;;4968539;28;20089;-73
2022/07/22 02:05:56;;;;;;;4.30;3.90;;;19.20;63.90;;;;;;4956871;28;20098;-73
2022/07/22 02:08:22;;;;;;;5.30;3.97;;;19.20;64.00;;;;;;4995059;28;20041;-73
2022/07/22 02:10:47;;;;;;;4.68;3.70;;;19.20;64.10;;;;;;4986542;28;20053;-73
2022/07/22 02:13:13;;;;;;;4.63;3.95;;;19.10;64.00;;;;;;4995935;28;20038;-72
2022/07/22 02:15:38;;;;;;;4.93;3.92;;;19.10;64.10;;;;;;4954379;28;20161;-73
2022/07/22 02:18:14;;;;;;;4.43;3.67;;;19.10;64.30;;;;;;4953173;28;20038;-72
2022/07/22 02:20:40;;;;;;;8.55;4.38;;;19.00;64.50;;;;;;4961852;28;20427;-72
2022/07/22 02:23:05;;;;;;;6.85;4.05;;;19.00;64.50;;;;;;4965668;28;20034;-72
2022/07/22 02:25:31;;;;;;;4.68;3.47;;;19.00;64.50;;;;;;4960605;28;20066;-71
2022/07/22 02:27:57;;;;;;;3.72;3.42;;;18.90;64.60;;;;;;4976759;28;20026;-72
2022/07/22 02:30:22;;;;;;;5.07;3.85;;;18.90;64.70;;;;;;4976504;28;20041;-72
2022/07/22 02:32:48;;;;;;;4.22;3.70;;;18.90;64.70;;;;;;4969546;28;20110;-72
2022/07/22 02:35:13;;;;;;;5.10;3.63;;;18.80;64.90;;;;;;4992787;28;20109;-72
2022/07/22 02:37:39;;;;;;;5.18;3.88;;;18.80;64.90;;;;;;4996928;28;20137;-72
2022/07/22 02:40:05;;;;;;;3.58;3.25;;;18.80;64.90;;;;;;4964652;28;20034;-72
2022/07/22 02:42:31;;;;;;;5.85;3.72;;;18.80;64.90;;;;;;4979829;28;20078;-72
2022/07/22 02:44:56;;;;;;;4.85;3.70;;;18.80;65.00;;;;;;4967807;28;20058;-73
2022/07/22 02:47:22;;;;;;;5.85;3.35;;;18.70;65.10;;;;;;4965797;28;20960;-71
2022/07/22 02:49:47;;;;;;;3.55;3.25;;;18.70;65.10;;;;;;4990414;28;20034;-72
2022/07/22 02:52:13;;;;;;;5.95;4.18;;;18.70;65.20;;;;;;4979083;28;20594;-71
2022/07/22 02:54:38;;;;;;;6.15;4.03;;;18.70;65.30;;;;;;4981891;28;20054;-71
2022/07/22 02:57:04;;;;;;;4.28;3.60;;;18.60;65.40;;;;;;4974136;28;20120;-72
2022/07/22 02:59:29;;;;;;;3.72;3.35;;;18.60;65.40;;;;;;4965346;28;20165;-73
2022/07/22 03:01:55;;;;;;;5.72;4.20;;;18.60;65.60;;;;;;4982483;28;20054;-71
2022/07/22 03:04:20;;;;;;;5.70;4.50;;;18.60;66.40;;;;;;4985165;28;20084;-72
2022/07/22 03:06:46;;;;;;;8.13;4.78;;;18.50;65.70;;;;;;4966387;28;20027;-72
2022/07/22 03:09:11;;;;;;;5.57;3.55;;;18.50;65.70;;;;;;4972270;28;20045;-71
2022/07/22 03:11:37;;;;;;;5.97;3.55;;;18.40;66.00;;;;;;4988852;28;20184;-71
2022/07/22 03:14:02;;;;;;;5.20;3.88;;;18.30;65.90;;;;;;4994471;28;20035;-71
2022/07/22 03:16:28;;;;;;;5.07;4.22;;;18.30;66.10;;;;;;4970691;28;20113;-71
2022/07/22 03:18:53;;;;;;;4.28;3.88;;;18.30;66.10;;;;;;4987989;28;20046;-72
2022/07/22 03:21:19;;;;;;;5.40;3.97;;;18.30;66.40;;;;;;4964567;28;20034;-74
2022/07/22 03:23:44;;;;;;;7.55;3.88;;;18.20;66.30;;;;;;4985673;28;20588;-71
2022/07/22 03:26:10;;;;;;;5.00;4.50;;;18.20;66.40;;;;;;4961769;28;20566;-71
2022/07/22 03:28:35;;;;;;;4.28;3.70;;;18.20;66.70;;;;;;4990480;28;20049;-71
2022/07/22 03:31:01;;;;;;;5.22;3.80;;;18.10;66.60;;;;;;4934881;28;20143;-72
2022/07/22 03:33:26;;;;;;;5.00;4.05;;;18.10;66.80;;;;;;4968388;28;20029;-71
2022/07/22 03:35:52;;;;;;;4.55;3.95;;;18.10;66.90;;;;;;4953912;28;20413;-71
2022/07/22 03:38:17;;;;;;;5.60;4.50;;;18.00;67.00;;;;;;4985946;28;20523;-71
2022/07/22 03:40:43;;;;;;;6.00;4.03;;;18.00;67.10;;;;;;4964470;28;20812;-71
2022/07/22 03:43:09;;;;;;;4.80;4.20;;;17.90;67.10;;;;;;4973508;28;20507;-70
2022/07/22 03:45:34;;;;;;;6.00;4.07;;;17.90;67.20;;;;;;4968854;28;20441;-71
2022/07/22 03:48:00;;;;;;;4.85;3.80;;;17.90;67.20;;;;;;4956422;28;20682;-71
2022/07/22 03:50:25;;;;;;;4.55;4.10;;;17.90;67.20;;;;;;4957228;28;20492;-71
2022/07/22 03:52:51;;;;;;;4.68;3.97;;;17.90;67.30;;;;;;4964699;28;20050;-71
2022/07/22 03:55:16;;;;;;;6.85;4.13;;;17.90;67.30;;;;;;4974087;28;20050;-71
2022/07/22 03:57:42;;;;;;;7.00;4.30;;;17.90;67.40;;;;;;4971480;28;20038;-71
2022/07/22 04:00:08;;;;;;;5.35;4.25;;;17.80;67.40;;;;;;4963364;28;20415;-73
2022/07/22 04:02:33;;;;;;;5.95;4.43;;;17.80;67.60;;;;;;4960066;28;20827;-71
2022/07/22 04:04:59;;;;;;;6.80;4.47;;;17.80;67.70;;;;;;4967427;28;20506;-71
2022/07/22 04:07:24;;;;;;;4.55;3.63;;;17.80;67.90;;;;;;4941743;28;20522;-70
2022/07/22 04:09:50;;;;;;;7.45;4.20;;;17.80;68.00;;;;;;4955618;28;20050;-70
2022/07/22 04:12:16;;;;;;;4.85;4.22;;;17.70;68.10;;;;;;4971533;28;20057;-71
2022/07/22 04:14:41;;;;;;;7.07;4.45;;;17.70;68.30;;;;;;4950986;28;20031;-71
2022/07/22 04:17:07;;;;;;;4.85;4.00;;;17.70;68.40;;;;;;4947026;28;20118;-70
2022/07/22 04:19:32;;;;;;;5.90;3.97;;;17.70;68.50;;;;;;4927237;28;20059;-71
2022/07/22 04:21:58;;;;;;;6.32;4.53;;;17.70;68.50;;;;;;4939656;28;20112;-72
2022/07/22 04:24:23;;;;;;;5.72;3.85;;;17.70;68.60;;;;;;4948996;28;20491;-70
2022/07/22 04:26:49;;;;;;;4.85;3.65;;;17.80;68.80;;;;;;4985987;28;20506;-71
2022/07/22 04:29:14;;;;;;;5.80;4.03;;;17.80;68.70;;;;;;4963622;28;20039;-70
2022/07/22 04:31:40;;;;;;;5.05;4.22;;;17.80;68.80;;;;;;4982470;28;20030;-71
2022/07/22 04:34:05;;;;;;;4.70;4.20;;;17.80;68.90;;;;;;4950721;28;20743;-72
2022/07/22 04:36:31;;;;;;;8.18;4.47;;;17.80;69.20;;;;;;4974047;28;20031;-71
2022/07/22 04:38:56;;;;;;;6.63;4.32;;;17.80;69.20;;;;;;4949259;28;20035;-70
2022/07/22 04:41:22;;;;;;;4.95;3.95;;;17.80;69.30;;;;;;4948404;28;20043;-70
2022/07/22 04:43:48;;;;;;;4.53;3.70;;;17.80;70.00;;;;;;4966369;28;20053;-70
2022/07/22 04:46:13;;;;;;;6.68;4.07;;;17.80;69.30;;;;;;4986405;28;20073;-71
2022/07/22 04:48:39;;;;;;;7.00;4.65;;;17.90;69.50;;;;;;4952002;28;20042;-70
2022/07/22 04:51:04;;;;;;;7.95;4.32;;;17.90;69.40;;;;;;4959025;28;20062;-70
2022/07/22 04:53:30;;;;;;;5.05;3.90;;;17.90;69.60;;;;;;4956267;28;20038;-72
2022/07/22 04:55:55;;;;;;;6.20;4.85;;;17.90;69.70;;;;;;4950820;28;20049;-71
2022/07/22 04:58:21;;;;;;;5.20;4.68;;;18.00;69.70;;;;;;4975296;28;20034;-70
2022/07/22 05:00:47;;;;;;;5.75;4.43;;;18.00;69.90;;;;;;4969622;28;20042;-72
2022/07/22 05:03:13;;;;;;;6.32;4.70;;;18.00;70.00;;;;;;4964441;28;20546;-71
2022/07/22 05:05:38;;;;;;;5.20;4.65;;;18.10;70.50;;;;;;4964100;28;20105;-71
2022/07/22 05:08:04;;;;;;;7.75;4.63;;;18.10;70.70;;;;;;4960899;28;20038;-71
2022/07/22 05:10:29;;;;;;;6.53;4.40;;;18.10;70.60;;;;;;4961622;28;20102;-71
2022/07/22 05:12:55;;;;;;;7.10;4.43;;;18.20;70.80;;;;;;4981016;28;20042;-71
2022/07/22 05:15:21;;;;;;;5.63;3.97;;;18.20;70.90;;;;;;4975416;28;20102;-72
2022/07/22 05:17:46;;;;;;;4.93;4.43;;;18.20;70.90;;;;;;4943295;28;20043;-72
2022/07/22 05:20:12;;;;;;;4.68;3.92;;;18.30;70.90;;;;;;4939790;28;20161;-70
2022/07/22 05:22:37;;;;;;;5.18;4.32;;;18.30;71.10;;;;;;4965164;28;20081;-70
2022/07/22 05:25:03;;;;;;;4.40;4.00;;;18.40;71.00;;;;;;4982935;28;20050;-71
2022/07/22 05:27:29;;;;;;;4.03;3.28;;;18.40;71.00;;;;;;4958372;28;20118;-71
2022/07/22 05:29:54;;;;;;;5.13;4.03;;;18.50;71.10;;;;;;4953460;28;20120;-70
2022/07/22 05:32:20;;;;;;;6.00;4.35;;;18.50;70.90;;;;;;4963850;28;20042;-71
2022/07/22 05:34:45;;;;;;;6.22;4.13;;;18.60;71.10;;;;;;4958953;28;20446;-71
2022/07/22 05:37:11;;;;;;;7.38;4.30;;;18.60;71.10;;;;;;4937682;28;20164;-72
2022/07/22 05:39:36;;;;;;;6.68;4.57;;;18.60;71.00;;;;;;4974804;28;20046;-72
2022/07/22 05:42:02;;;;;;;5.47;4.15;;;18.70;71.00;;;;;;4959584;28;20031;-70
2022/07/22 05:44:27;;;;;;;6.55;4.18;;;18.70;71.00;;;;;;4960179;28;20050;-71
2022/07/22 05:46:53;;;;;;;5.78;3.92;;;18.70;70.80;;;;;;4959245;28;20042;-71
2022/07/22 05:49:19;;;;;;;6.80;3.50;;;18.80;70.80;;;;;;4962711;28;20038;-71
2022/07/22 05:51:45;;;;;;;5.93;4.07;;;18.80;70.80;;;;;;4940958;28;20560;-72
2022/07/22 05:54:10;;;;;;;5.70;3.88;;;18.90;70.70;;;;;;4990840;28;20496;-72
2022/07/22 05:56:36;;;;;;;7.13;4.35;;;18.90;70.70;;;;;;4978566;28;20045;-71
2022/07/22 05:59:01;;;;;;;7.80;3.50;;;19.00;70.70;;;;;;4970766;28;20045;-72
2022/07/22 06:01:27;;;;;;;6.05;3.42;;;19.00;70.70;;;;;;4970124;28;20483;-71
2022/07/22 06:03:52;;;;;;;5.95;3.72;;;19.10;70.60;;;;;;4973753;28;20108;-72
2022/07/22 06:06:18;;;;;;;10.45;3.83;;;19.10;70.50;;;;;;4950362;28;20551;-71
2022/07/22 06:08:43;;;;;;;4.07;3.40;;;19.20;70.50;;;;;;4968019;28;20030;-71
2022/07/22 06:11:09;;;;;;;3.65;3.28;;;19.20;70.60;;;;;;4966200;28;20041;-72
2022/07/22 06:13:34;;;;;;;6.47;3.63;;;19.30;70.30;;;;;;4967579;28;20042;-72
2022/07/22 06:16:00;;;;;;;6.25;4.10;;;19.30;70.10;;;;;;4965007;28;20038;-72
2022/07/22 06:18:26;;;;;;;3.88;3.33;;;19.40;70.00;;;;;;4972907;28;20591;-72
2022/07/22 06:20:51;;;;;;;6.20;3.40;;;19.50;70.20;;;;;;4963047;28;20054;-72
2022/07/22 06:23:17;;;;;;;4.72;3.70;;;19.50;70.00;;;;;;4957704;28;20079;-71
2022/07/22 06:25:42;;;;;;;5.18;3.10;;;19.60;69.80;;;;;;4986355;28;20046;-71
2022/07/22 06:28:08;;;;;;;4.90;3.90;;;19.70;69.80;;;;;;4972873;28;20040;-72
2022/07/22 06:30:34;;;;;;;4.82;3.50;;;19.80;69.60;;;;;;4971081;28;20053;-72
2022/07/22 06:33:00;;;;;;;4.55;3.50;;;19.80;69.30;;;;;;4962846;28;20098;-71
2022/07/22 06:35:25;;;;;;;3.90;3.50;;;19.90;69.30;;;;;;4976842;28;20049;-72
2022/07/22 06:37:51;;;;;;;5.07;3.42;;;19.90;69.10;;;;;;4989315;28;20035;-72
2022/07/22 06:40:16;;;;;;;3.63;3.13;;;20.00;69.10;;;;;;4982813;28;20077;-71
2022/07/22 06:42:42;;;;;;;3.67;3.13;;;20.10;68.90;;;;;;4980318;28;20641;-72
2022/07/22 06:45:08;;;;;;;4.82;3.83;;;20.10;68.60;;;;;;4981121;28;20053;-72
2022/07/22 06:47:35;;;;;;;6.22;3.80;;;20.20;68.60;;;;;;4966891;28;20081;-73
2022/07/22 06:50:02;;;;;;;6.45;4.03;;;20.30;68.40;;;;;;4972458;28;20060;-72
2022/07/22 06:52:28;;;;;;;4.10;3.45;;;20.40;68.30;;;;;;4964722;28;20045;-71
2022/07/22 06:54:53;;;;;;;4.53;3.20;;;20.50;68.10;;;;;;4960255;28;20294;-72
2022/07/22 06:57:19;;;;;;;3.42;3.13;;;20.60;68.00;;;;;;4961100;28;20029;-72
2022/07/22 06:59:44;;;;;;;4.25;3.17;;;20.70;67.80;;;;;;4989210;28;20094;-72
2022/07/22 07:02:10;;;;;;;9.15;3.95;;;20.80;67.60;;;;;;4990572;28;20035;-72
2022/07/22 07:04:35;;;;;;;6.70;3.70;;;20.90;67.50;;;;;;4987263;28;20077;-71
2022/07/22 07:07:01;;;;;;;5.10;3.90;;;21.10;67.30;;;;;;4946535;28;20443;-71
2022/07/22 07:09:26;;;;;;;3.80;3.35;;;21.20;67.10;;;;;;4965798;28;20080;-72
2022/07/22 07:11:52;;;;;;;4.95;3.38;;;21.40;66.80;;;;;;4996525;28;20464;-72
2022/07/22 07:14:17;;;;;;;3.90;3.38;;;21.50;66.50;;;;;;4968271;28;20042;-72
2022/07/22 07:16:43;;;;;;;4.85;3.47;;;21.70;66.20;;;;;;4965378;28;20038;-72
2022/07/22 07:19:08;;;;;;;7.10;4.50;;;21.80;66.00;;;;;;4964294;28;20034;-72
2022/07/22 07:21:34;;;;;;;7.07;4.38;;;21.90;65.60;;;;;;4978026;28;20042;-72
2022/07/22 07:24:01;;;;;;;8.32;4.07;;;22.00;65.30;;;;;;4978628;28;20025;-73
2022/07/22 07:26:27;;;;;;;6.85;4.60;;;22.20;65.10;;;;;;4978880;28;20029;-72
2022/07/22 07:28:52;;;;;;;6.32;4.10;;;22.40;64.80;;;;;;4984386;28;20428;-72
2022/07/22 07:31:18;;;;;;;4.80;4.30;;;22.50;64.50;;;;;;4973034;28;20118;-72
2022/07/22 07:33:43;;;;;;;5.82;5.10;;;22.60;64.10;;;;;;4978492;28;20034;-73
2022/07/22 07:36:09;;;;;;;9.05;6.75;;;22.80;63.70;;;;;;4998775;28;20616;-72
2022/07/22 07:38:35;;;;;;;12.68;5.70;;;22.90;63.40;;;;;;4964035;28;20052;-73
2022/07/22 07:41:01;;;;;;;5.95;4.78;;;23.10;63.00;;;;;;4986431;28;20118;-71
2022/07/22 07:43:27;;;;;;;7.28;4.53;;;23.20;62.60;;;;;;4971541;28;20658;-73
2022/07/22 07:45:52;;;;;;;5.22;4.70;;;23.40;63.00;;;;;;4984123;28;20054;-72
2022/07/22 07:48:18;;;;;;;5.80;3.90;;;23.50;61.80;;;;;;4972088;28;20418;-72
2022/07/22 07:50:43;;;;;;;6.47;4.07;;;23.70;61.50;;;;;;4975497;28;20061;-73
2022/07/22 07:53:13;;;;;;;6.18;4.03;;;23.80;61.10;;;;;;4982903;28;20075;-73
2022/07/22 07:55:39;;;;;;;6.15;4.22;;;24.00;60.80;;;;;;4965073;28;20054;-73
2022/07/22 07:58:05;;;;;;;6.32;3.95;;;24.20;60.50;;;;;;4979880;28;20094;-72
2022/07/22 08:00:32;;;;;;;4.30;3.60;;;24.30;60.00;;;;;;4990904;28;20120;-73
2022/07/22 08:02:57;;;;;;;4.20;3.80;;;24.50;59.70;;;;;;4963869;28;20070;-72
2022/07/22 08:05:23;;;;;;;7.43;4.00;;;24.60;59.30;;;;;;4980633;28;20076;-72
2022/07/22 08:07:49;;;;;;;4.45;4.05;;;24.70;59.00;;;;;;4966037;28;20034;-72
2022/07/22 08:10:14;;;;;;;6.35;3.85;;;24.80;58.70;;;;;;4971996;28;20506;-73
2022/07/22 08:12:40;;;;;;;4.95;3.65;;;25.00;58.30;;;;;;4982543;28;20041;-72
2022/07/22 08:15:06;;;;;;;4.85;3.40;;;25.10;58.10;;;;;;4983391;28;20038;-73
2022/07/22 08:17:33;;;;;;;3.30;3.08;;;25.20;57.80;;;;;;4996008;28;20031;-73
2022/07/22 08:19:58;;;;;;;8.02;4.40;;;25.40;57.60;;;;;;4977024;28;20038;-72
2022/07/22 08:22:24;;;;;;;5.05;3.60;;;25.60;57.30;;;;;;4970404;28;20442;-72
2022/07/22 08:24:49;;;;;;;6.05;3.20;;;25.70;56.90;;;;;;4985967;28;20035;-73
2022/07/22 08:27:15;;;;;;;4.93;3.00;;;25.80;56.60;;;;;;4981285;28;20046;-71
2022/07/22 08:29:40;;;;;;;5.60;3.17;;;25.90;56.40;;;;;;4985126;28;20038;-72
2022/07/22 08:32:06;;;;;;;6.15;3.88;;;26.00;56.20;;;;;;4983796;28;20034;-72
2022/07/22 08:34:31;;;;;;;3.33;2.95;;;26.30;55.90;;;;;;4992187;28;20035;-72
2022/07/22 08:36:57;;;;;;;4.93;3.70;;;26.40;55.50;;;;;;4992763;28;20046;-72
2022/07/22 08:39:23;;;;;;;4.80;3.33;;;26.60;55.20;;;;;;5000409;28;20038;-72
2022/07/22 08:41:50;;;;;;;3.70;3.20;;;26.70;54.80;;;;;;4967836;28;20063;-72
2022/07/22 08:44:15;;;;;;;5.18;3.70;;;26.80;54.60;;;;;;4996711;28;20041;-73
2022/07/22 08:46:43;;;;;;;4.20;3.22;;;27.00;54.40;;;;;;4991774;28;20038;-75
2022/07/22 08:49:08;;;;;;;3.65;3.35;;;27.10;54.10;;;;;;4979200;28;20585;-72
2022/07/22 08:51:34;;;;;;;6.82;4.25;;;27.30;53.70;;;;;;4971509;28;20050;-73
2022/07/22 08:53:59;;;;;;;5.05;3.05;;;27.40;53.40;;;;;;4968805;28;20046;-73
2022/07/22 08:56:25;;;;;;;5.32;3.17;;;27.60;53.10;;;;;;4977669;28;20380;-71
2022/07/22 08:58:50;;;;;;;6.75;3.45;;;27.80;52.70;;;;;;4980448;28;20026;-73
2022/07/22 09:01:16;;;;;;;3.75;3.45;;;27.90;52.30;;;;;;4977710;28;20081;-72
2022/07/22 09:03:54;;;;;;;3.65;3.33;;;28.00;51.90;;;;;;4969207;28;20022;-73
2022/07/22 09:06:20;;;;;;;4.95;3.28;;;28.20;51.50;;;;;;4974567;28;20034;-74
2022/07/22 09:09:03;;;;;;;4.57;3.33;;;28.30;51.40;;;;;;4965024;28;20043;-72
2022/07/22 09:11:29;;;;;;;4.60;3.63;;;28.50;50.60;;;;;;4977682;28;20046;-72
2022/07/22 09:13:55;;;;;;;3.60;3.15;;;28.70;50.80;;;;;;4964224;28;20498;-72
2022/07/22 09:16:41;;;;;;;4.82;3.35;;;28.90;50.40;;;;;;4948306;28;20117;-71
2022/07/22 09:19:06;;;;;;;4.10;3.38;;;29.00;49.60;;;;;;4972674;28;20033;-72
2022/07/22 09:21:32;;;;;;;4.10;2.95;;;29.10;49.90;;;;;;4973260;28;20097;-72
2022/07/22 09:23:58;;;;;;;5.25;3.85;;;29.30;49.60;;;;;;4980304;28;20042;-72
2022/07/22 09:26:34;;;;;;;9.55;3.97;;;29.50;49.30;;;;;;4972169;28;20479;-73
2022/07/22 09:28:59;;;;;;;4.18;2.90;;;29.70;48.60;;;;;;4972930;28;20046;-72
2022/07/22 09:31:33;;;;;;;3.80;3.22;;;29.90;48.70;;;;;;4980860;28;20044;-72
2022/07/22 09:33:58;;;;;;;4.43;3.40;;;30.00;48.00;;;;;;5002478;28;20124;-73
2022/07/22 09:36:24;;;;;;;7.03;3.35;;;30.20;47.90;;;;;;4996038;28;20058;-73
2022/07/22 09:38:50;;;;;;;4.22;3.08;;;30.40;47.60;;;;;;4979730;28;20577;-72
2022/07/22 09:41:15;;;;;;;3.63;2.97;;;30.50;47.30;;;;;;4963570;28;20046;-72
2022/07/22 09:43:41;;;;;;;4.47;3.38;;;30.70;47.00;;;;;;4965449;28;20039;-72
2022/07/22 09:46:08;;;;;;;3.13;2.60;;;30.80;46.60;;;;;;4950799;28;20116;-71
2022/07/22 09:48:33;;;;;;;3.58;3.28;;;30.90;46.20;;;;;;4981202;28;20030;-72
2022/07/22 09:50:59;;;;;;;3.92;3.00;;;31.10;46.10;;;;;;4972827;28;20395;-72
2022/07/22 09:53:29;;;;;;;4.25;3.10;;;31.30;45.80;;;;;;4975477;28;20100;-72
2022/07/22 09:55:59;;;;;;;3.15;2.85;;;31.40;45.40;;;;;;4944914;28;20487;-72
2022/07/22 09:58:25;;;;;;;4.05;3.20;;;31.60;45.20;;;;;;4961102;28;20469;-73
2022/07/22 10:00:51;;;;;;;4.03;2.88;;;31.80;45.00;;;;;;4998299;28;20049;-72
2022/07/22 10:03:27;;;;;;;3.25;2.97;;;31.90;44.70;;;;;;4986250;28;20172;-72
2022/07/22 10:05:52;;;;;;;6.80;3.08;;;32.10;43.90;;;;;;4997811;28;20046;-72
2022/07/22 10:08:18;;;;;;;4.43;3.17;;;32.30;44.20;;;;;;4976881;28;20045;-73
2022/07/22 10:10:43;;;;;;;3.70;3.03;;;32.40;44.00;;;;;;4979656;28;20046;-72
2022/07/22 10:13:09;;;;;;;5.15;3.35;;;32.60;43.70;;;;;;4978681;28;20035;-72
2022/07/22 10:15:35;;;;;;;3.35;3.00;;;32.80;43.50;;;;;;4978105;28;20037;-72
2022/07/22 10:18:16;;;;;;;3.42;3.13;;;32.90;43.20;;;;;;4986019;28;20056;-72
2022/07/22 10:20:42;;;;;;;5.53;3.60;;;33.10;42.00;;;;;;4947817;28;20038;-72
2022/07/22 10:23:08;;;;;;;5.30;3.10;;;33.20;42.50;;;;;;4979109;28;20454;-72
2022/07/22 10:25:53;;;;;;;4.03;2.65;;;33.40;42.30;;;;;;4983664;28;20132;-72
2022/07/22 10:28:28;;;;;;;3.03;2.72;;;33.60;41.30;;;;;;4952132;28;20046;-72
2022/07/22 10:31:23;;;;;;;4.43;2.95;;;33.80;41.50;;;;;;4969947;28;20133;-73
2022/07/22 10:33:54;;;;;;;3.92;3.08;;;33.90;40.70;;;;;;4961803;28;20037;-73
2022/07/22 10:36:36;;;;;;;3.03;2.72;;;34.10;41.00;;;;;;4969942;28;20034;-73
2022/07/22 10:39:09;;;;;;;3.88;2.85;;;34.20;40.00;;;;;;4986271;28;20046;-76
2022/07/22 10:41:42;;;;;;;4.65;3.35;;;34.30;40.10;;;;;;4975677;28;20046;-76
2022/07/22 10:44:07;;;;;;;4.85;3.10;;;34.50;40.10;;;;;;4965829;28;20094;-76
2022/07/22 10:46:47;;;;;;;4.82;2.80;;;34.60;40.00;;;;;;4963129;28;20440;-75
2022/07/22 10:49:15;;;;;;;3.05;2.78;;;34.70;39.00;;;;;;4971004;28;20131;-74
2022/07/22 10:51:40;;;;;;;3.83;2.90;;;34.90;39.60;;;;;;4980289;28;20070;-75
2022/07/22 10:54:06;;;;;;;3.47;3.10;;;35.00;39.20;;;;;;4990655;28;20399;-74
2022/07/22 10:56:33;;;;;;;6.57;3.17;;;35.10;38.70;;;;;;4968596;28;20034;-74
2022/07/22 10:59:09;;;;;;;4.50;3.00;;;35.10;38.30;;;;;;4974376;28;20057;-74
2022/07/22 11:01:35;;;;;;;3.13;2.83;;;35.20;37.50;;;;;;4994616;28;20030;-74
2022/07/22 11:04:11;;;;;;;2.80;2.60;;;35.30;37.80;;;;;;4982011;28;20622;-73
2022/07/22 11:06:36;;;;;;;6.03;3.22;;;35.40;36.30;;;;;;4968862;28;20085;-74
2022/07/22 11:09:07;;;;;;;3.63;2.70;;;35.60;36.70;;;;;;4997784;28;20059;-73
2022/07/22 11:11:47;;;;;;;5.35;3.88;;;35.70;35.90;;;;;;4956938;28;20141;-75
2022/07/22 11:14:21;;;;;;;3.50;3.20;;;35.90;35.00;;;;;;4994862;28;20062;-74
2022/07/22 11:16:48;;;;;;;6.50;3.13;;;35.90;34.80;;;;;;4948389;28;20043;-73
2022/07/22 11:19:14;;;;;;;4.85;2.78;;;35.90;35.10;;;;;;4973230;28;20056;-76
2022/07/22 11:21:40;;;;;;;6.55;2.70;;;36.00;35.00;;;;;;4977024;28;20038;-74
2022/07/22 11:24:06;;;;;;;4.15;3.10;;;36.20;34.90;;;;;;4973284;28;20679;-73
2022/07/22 11:26:39;;;;;;;3.40;3.00;;;36.30;34.70;;;;;;4961126;28;20034;-73
2022/07/22 11:29:05;;;;;;;4.28;2.80;;;36.40;34.30;;;;;;4982738;28;20039;-74
2022/07/22 11:31:30;;;;;;;3.80;3.50;;;36.50;34.20;;;;;;4998359;28;20049;-73
2022/07/22 11:34:06;;;;;;;3.97;3.13;;;36.60;34.00;;;;;;4972229;28;20752;-74
2022/07/22 11:36:36;;;;;;;3.63;2.78;;;36.70;33.00;;;;;;4977409;28;20034;-74
2022/07/22 11:39:01;;;;;;;3.15;2.85;;;36.80;33.40;;;;;;4964698;28;20034;-73
2022/07/22 11:41:28;;;;;;;2.67;2.45;;;37.00;33.40;;;;;;4981563;28;20664;-73
2022/07/22 11:43:54;;;;;;;3.17;2.97;;;37.10;33.20;;;;;;4967087;28;20034;-74
2022/07/22 11:46:19;;;;;;;3.70;3.38;;;37.20;33.00;;;;;;5000784;28;20514;-74
2022/07/22 11:48:45;;;;;;;4.78;2.90;;;37.30;32.80;;;;;;4961937;28;20035;-73
2022/07/22 11:51:12;;;;;;;3.40;3.10;;;37.30;32.60;;;;;;4995537;28;20034;-71
2022/07/22 11:53:38;;;;;;;3.83;3.10;;;37.40;32.50;;;;;;4961002;28;20046;-70
2022/07/22 11:56:04;;;;;;;3.35;3.00;;;37.60;32.40;;;;;;4987905;28;20061;-72
2022/07/22 11:58:55;;;;;;;3.65;3.20;;;37.70;32.10;;;;;;4945548;28;20499;-72
2022/07/22 12:01:21;;;;;;;;;;;37.80;31.10;;;;;;4966230;28;20083;-71
2022/07/22 12:03:49;;;;;;;4.57;3.22;;;37.90;32.10;;;;;;4970464;28;19921;-71
2022/07/22 12:06:16;;;;;;;4.00;3.50;;;38.00;31.90;;;;;;4975714;28;20042;-71
2022/07/22 12:09:14;;;;;;;3.60;3.20;;;38.10;31.70;;;;;;4954520;28;20036;-72
2022/07/22 12:11:41;;;;;;;5.20;3.13;;;38.20;30.70;;;;;;4968854;28;20117;-72
2022/07/22 12:14:08;;;;;;;3.88;3.50;;;38.30;31.20;;;;;;4962539;28;20454;-72
2022/07/22 12:16:34;;;;;;;3.60;3.30;;;38.40;30.90;;;;;;4952851;28;20042;-73
2022/07/22 12:19:02;;;;;;;5.13;3.10;;;38.50;30.50;;;;;;4995584;28;20040;-72
2022/07/22 12:21:32;;;;;;;3.38;3.08;;;38.60;30.40;;;;;;4971604;28;20045;-73
2022/07/22 12:24:02;;;;;;;5.10;3.00;;;38.70;30.10;;;;;;4983963;28;20039;-72
2022/07/22 12:26:47;;;;;;;6.35;3.13;;;38.80;30.00;;;;;;4969387;28;20051;-71
2022/07/22 12:29:26;;;;;;;5.45;3.45;;;38.80;29.20;;;;;;4996418;28;20046;-72
2022/07/22 12:32:18;;;;;;;3.50;3.17;;;38.70;29.20;;;;;;4972548;28;20497;-72
2022/07/22 12:34:53;;;;;;;4.90;3.13;;;38.60;29.40;;;;;;4939343;28;20042;-72
2022/07/22 12:37:23;;;;;;;12.52;3.78;;;38.40;29.40;;;;;;4963339;28;20089;-71
2022/07/22 12:40:21;;;;;;;3.55;3.13;;;38.30;29.50;;;;;;4992521;28;20129;-72
2022/07/22 12:43:05;;;;;;;3.88;3.47;;;38.30;29.40;;;;;;4959340;28;20809;-72
2022/07/22 12:45:32;;;;;;;9.48;3.92;;;38.40;28.90;;;;;;4966950;28;20112;-71
2022/07/22 12:48:03;;;;;;;5.82;3.25;;;38.40;29.60;;;;;;4995644;28;20043;-73